Time;durP1;ratioP1;P1;durP2;ratioP2;P2;SDS_P1;SDS_P2;PMS_P1;PMS_P2;Temp;Humidity;BMP_temperature;BMP_pressure;BME280_temperature;BME280_humidity;BME280_pressure;Samples;Min_cycle;Max_cycle;Signal;HPM_P1;HPM_P2
2022/01/22 00:00:53;;;;;;;9.00;2.20;;;;;;;;;;5039288;28;93454;-72
2022/01/22 00:03:20;;;;;;;16.73;3.10;;;;;;;;;;5042218;28;94070;-73
2022/01/22 00:05:46;;;;;;;8.90;2.13;;;;;;;;;;5038903;28;93243;-72
2022/01/22 00:08:12;;;;;;;10.95;2.00;;;;;;;;;;5037800;27;93748;-73
2022/01/22 00:10:42;;;;;;;10.85;2.80;;;;;;;;;;5039522;28;91549;-72
2022/01/22 00:14:23;;;;;;;12.10;1.92;;;;;;;;;;5021236;28;93678;-73
2022/01/22 00:15:55;;;;;;;11.13;2.38;;;;;;;;;;5038392;28;93604;-73
2022/01/22 00:18:22;;;;;;;9.50;2.28;;;;;;;;;;5037163;28;94670;-71
2022/01/22 00:20:48;;;;;;;13.30;2.42;;;;;;;;;;5038680;28;96060;-71
2022/01/22 00:23:20;;;;;;;13.73;2.53;;;;;;;;;;5038492;28;93775;-72
2022/01/22 00:25:47;;;;;;;13.38;2.15;;;;;;;;;;5041882;28;92119;-72
2022/01/22 00:28:13;;;;;;;14.80;2.50;;;;;;;;;;5038703;28;94010;-71
2022/01/22 00:30:40;;;;;;;13.23;2.08;;;;;;;;;;5038305;28;92346;-72
2022/01/22 00:33:06;;;;;;;16.00;2.30;;;;;;;;;;5020372;28;96707;-71
2022/01/22 00:35:33;;;;;;;9.38;2.03;;;;;;;;;;5020999;28;94291;-72
2022/01/22 00:38:00;;;;;;;8.90;2.00;;;;;;;;;;5038471;28;92276;-72
2022/01/22 00:40:31;;;;;;;11.23;2.20;;;;;;;;;;5020597;28;96285;-71
2022/01/22 00:42:58;;;;;;;17.67;3.05;;;;;;;;;;5036569;28;95893;-71
2022/01/22 00:45:24;;;;;;;16.00;3.00;;;;;;;;;;5038219;28;94074;-71
2022/01/22 00:47:51;;;;;;;13.25;2.83;;;;;;;;;;5041380;28;93251;-73
2022/01/22 00:50:18;;;;;;;11.75;2.90;;;;;;;;;;5038240;28;92294;-74
2022/01/22 00:52:45;;;;;;;16.05;3.38;;;;;;;;;;5020196;28;95917;-72
2022/01/22 00:55:13;;;;;;;17.45;2.83;;;;;;;;;;5038110;28;93765;-72
2022/01/22 00:57:39;;;;;;;12.48;3.15;;;;;;;;;;5038190;28;92836;-72
2022/01/22 01:00:08;;;;;;;12.73;3.00;;;;;;;;;;5020850;28;93740;-73
2022/01/22 01:02:35;;;;;;;10.13;2.65;;;;;;;;;;5038066;28;93516;-72
2022/01/22 01:05:03;;;;;;;16.08;2.95;;;;;;;;;;5020144;28;92385;-72
2022/01/22 01:07:30;;;;;;;12.00;3.17;;;;;;;;;;5018608;28;96133;-72
2022/01/22 01:09:57;;;;;;;17.80;3.38;;;;;;;;;;5023187;28;96485;-72
2022/01/22 01:12:24;;;;;;;15.88;2.88;;;;;;;;;;5019548;28;94607;-72
2022/01/22 01:34:09;;;;;;;13.68;2.67;;;;;;;;;;5018122;28;94801;-73
2022/01/22 01:36:36;;;;;;;20.85;3.55;;;;;;;;;;5019706;28;96723;-72
2022/01/22 01:39:06;;;;;;;22.42;3.38;;;;;;;;;;5037598;28;92331;-72
2022/01/22 01:41:42;;;;;;;13.68;3.38;;;;;;;;;;5037381;28;93426;-72
2022/01/22 01:44:11;;;;;;;17.17;3.80;;;;;;;;;;5019498;28;96079;-72
2022/01/22 01:46:57;;;;;;;19.38;3.78;;;;;;;;;;5019609;28;92341;-72
2022/01/22 01:49:27;;;;;;;10.23;3.67;;;;;;;;;;5002805;28;95512;-71
2022/01/22 01:51:56;;;;;;;13.57;4.53;;;;;;;;;;5019909;28;94880;-72
2022/01/22 01:59:41;;;;;;;18.73;3.90;;;;;;;;;;5017852;28;94684;-71
2022/01/22 02:02:11;;;;;;;17.80;4.18;;;;;;;;;;5019455;28;97633;-71
2022/01/22 02:04:39;;;;;;;17.05;4.00;;;;;;;;;;5018909;28;95978;-71
2022/01/22 02:07:06;;;;;;;16.75;4.07;;;;;;;;;;5019346;28;92406;-71
2022/01/22 02:09:37;;;;;;;15.68;3.50;;;;;;;;;;5020556;28;96156;-71
2022/01/22 02:12:14;;;;;;;16.38;4.20;;;;;;;;;;5018968;28;96626;-71
2022/01/22 02:23:42;;;;;;;18.20;5.65;;;;;;;;;;5018814;28;95946;-71
2022/01/22 02:26:10;;;;;;;17.33;4.35;;;;;;;;;;5017313;28;97862;-72
2022/01/22 02:28:41;;;;;;;28.65;4.95;;;;;;;;;;5019178;28;92382;-71
2022/01/22 02:32:02;;;;;;;19.05;5.22;;;;;;;;;;5020475;28;96270;-71
2022/01/22 02:36:38;;;;;;;20.98;4.60;;;;;;;;;;5022781;28;92273;-72
2022/01/22 02:39:12;;;;;;;16.30;3.70;;;;;;;;;;5022902;28;95613;-72
2022/01/22 02:41:44;;;;;;;18.10;4.22;;;;;;;;;;5025277;28;96270;-72
2022/01/22 02:44:15;;;;;;;16.70;4.50;;;;;;;;;;5022582;28;95402;-71
2022/01/22 02:46:43;;;;;;;28.75;5.30;;;;;;;;;;5005730;28;94867;-72
2022/01/22 02:49:09;;;;;;;18.00;4.25;;;;;;;;;;5021685;28;94524;-71
2022/01/22 02:51:36;;;;;;;12.20;3.80;;;;;;;;;;5020796;28;95990;-72
2022/01/22 02:54:04;;;;;;;26.80;3.70;;;;;;;;;;5021831;28;96025;-71
2022/01/22 02:56:30;;;;;;;20.52;4.63;;;;;;;;;;5022342;28;92367;-71
2022/01/22 02:58:59;;;;;;;24.23;4.57;;;;;;;;;;5021986;28;95175;-71
2022/01/22 03:01:26;;;;;;;13.63;3.88;;;;;;;;;;5022038;28;95404;-71
2022/01/22 03:03:53;;;;;;;20.40;4.32;;;;;;;;;;5025266;28;92397;-71
2022/01/22 03:06:20;;;;;;;13.15;4.18;;;;;;;;;;5021881;28;95949;-72
2022/01/22 03:08:47;;;;;;;18.25;4.88;;;;;;;;;;5022462;28;92738;-72
2022/01/22 03:11:24;;;;;;;20.35;4.15;;;;;;;;;;5040088;28;92227;-72
2022/01/22 03:17:12;;;;;;;;;;;;;;;;;;4996840;28;94824;-72
2022/01/22 03:22:23;;;;;;;20.23;3.95;;;;;;;;;;5021533;28;95657;-72
2022/01/22 03:27:34;;;;;;;22.80;3.97;;;;;;;;;;5024712;28;96243;-72
2022/01/22 03:30:03;;;;;;;19.88;4.25;;;;;;;;;;5021322;28;93053;-71
2022/01/22 03:32:37;;;;;;;15.25;3.80;;;;;;;;;;5021787;28;95256;-71
2022/01/22 03:37:59;;;;;;;17.05;3.53;;;;;;;;;;5008547;28;92310;-72
2022/01/22 03:40:29;;;;;;;15.88;3.53;;;;;;;;;;5021062;28;95481;-72
2022/01/22 03:42:55;;;;;;;13.75;3.40;;;;;;;;;;5019673;28;95977;-71
2022/01/22 03:45:24;;;;;;;16.45;3.40;;;;;;;;;;5021607;28;92391;-72
2022/01/22 03:47:53;;;;;;;13.27;3.28;;;;;;;;;;5024434;28;94726;-71
2022/01/22 03:50:20;;;;;;;11.38;2.70;;;;;;;;;;5021018;28;92418;-71
2022/01/22 03:52:48;;;;;;;9.85;2.78;;;;;;;;;;5021334;28;94894;-71
2022/01/22 03:55:31;;;;;;;14.70;3.25;;;;;;;;;;5038587;28;94077;-72
2022/01/22 03:58:18;;;;;;;14.38;3.33;;;;;;;;;;5038640;28;92433;-71
2022/01/22 04:01:02;;;;;;;11.05;3.20;;;;;;;;;;5021614;28;95506;-72
2022/01/22 04:03:34;;;;;;;18.05;3.08;;;;;;;;;;5020607;28;96287;-71
2022/01/22 04:06:48;;;;;;;23.50;3.25;;;;;;;;;;5020821;28;92445;-71
2022/01/22 04:09:08;;;;;;;17.38;2.60;;;;;;;;;;5019399;28;95959;-71
2022/01/22 04:11:38;;;;;;;17.77;3.47;;;;;;;;;;5023974;28;96514;-70
2022/01/22 04:14:07;;;;;;;15.10;3.30;;;;;;;;;;5020828;28;95060;-71
2022/01/22 04:16:36;;;;;;;22.75;4.00;;;;;;;;;;5020870;28;94009;-71
2022/01/22 04:24:53;;;;;;;13.48;3.38;;;;;;;;;;5038874;28;93572;-71
2022/01/22 04:27:24;;;;;;;14.00;3.30;;;;;;;;;;5021301;28;91587;-71
2022/01/22 04:29:51;;;;;;;11.90;3.38;;;;;;;;;;5038923;28;92960;-71
2022/01/22 04:32:18;;;;;;;25.10;3.70;;;;;;;;;;5038583;28;92959;-71
2022/01/22 04:34:45;;;;;;;20.23;4.13;;;;;;;;;;5039745;28;94569;-72
2022/01/22 04:37:11;;;;;;;11.40;3.63;;;;;;;;;;5020532;28;96434;-71
2022/01/22 04:39:38;;;;;;;15.60;3.63;;;;;;;;;;5038879;28;92348;-71
2022/01/22 04:42:05;;;;;;;15.63;3.80;;;;;;;;;;5038765;28;93026;-70
2022/01/22 04:44:36;;;;;;;15.82;4.15;;;;;;;;;;5038633;28;93612;-72
2022/01/22 04:52:37;;;;;;;13.02;3.80;;;;;;;;;;5020641;28;93783;-71
2022/01/22 04:55:04;;;;;;;19.42;3.92;;;;;;;;;;5019737;28;92380;-71
2022/01/22 04:57:35;;;;;;;17.75;4.10;;;;;;;;;;5023016;28;94867;-71
2022/01/22 05:00:04;;;;;;;18.70;3.95;;;;;;;;;;5036760;28;94748;-71
2022/01/22 05:02:46;;;;;;;17.55;3.80;;;;;;;;;;5020156;28;97138;-71
2022/01/22 05:05:51;;;;;;;15.38;3.95;;;;;;;;;;4975889;28;93048;-71
2022/01/22 05:08:43;;;;;;;15.00;4.07;;;;;;;;;;4974638;28;92414;-71
2022/01/22 05:11:14;;;;;;;15.32;4.10;;;;;;;;;;5006312;28;95984;-71
2022/01/22 05:13:41;;;;;;;12.65;4.05;;;;;;;;;;5019859;28;95973;-71
2022/01/22 05:16:10;;;;;;;18.42;4.22;;;;;;;;;;5037900;28;92142;-72
2022/01/22 05:18:44;;;;;;;24.27;5.00;;;;;;;;;;5020065;28;95247;-71
2022/01/22 05:21:15;;;;;;;16.45;3.95;;;;;;;;;;5006299;28;95606;-71
2022/01/22 05:23:43;;;;;;;13.35;4.47;;;;;;;;;;5019939;28;95532;-71
2022/01/22 05:26:27;;;;;;;19.17;4.45;;;;;;;;;;5017954;28;98711;-71
2022/01/22 05:37:50;;;;;;;14.95;4.75;;;;;;;;;;5019608;28;92455;-71
2022/01/22 05:40:17;;;;;;;13.43;4.22;;;;;;;;;;5037831;28;92954;-71
2022/01/22 05:42:43;;;;;;;19.50;5.03;;;;;;;;;;5019437;28;96530;-71
2022/01/22 05:45:10;;;;;;;18.55;4.78;;;;;;;;;;5023313;28;92604;-71
2022/01/22 05:47:36;;;;;;;16.52;5.07;;;;;;;;;;5037379;28;93597;-72
2022/01/22 05:50:08;;;;;;;12.68;4.93;;;;;;;;;;5036855;28;92296;-71
2022/01/22 05:52:44;;;;;;;16.08;5.10;;;;;;;;;;5018061;28;96153;-72
2022/01/22 05:55:39;;;;;;;23.33;5.38;;;;;;;;;;5037435;28;93443;-71
2022/01/22 06:00:52;;;;;;;;;;;;;;;;;;5019834;28;94968;-71
2022/01/22 06:03:35;;;;;;;19.90;4.28;;;;;;;;;;5019291;28;96192;-72
2022/01/22 06:06:02;;;;;;;19.48;4.50;;;;;;;;;;5021246;28;92354;-71
2022/01/22 06:08:31;;;;;;;12.60;4.22;;;;;;;;;;5018993;28;95393;-72
2022/01/22 06:11:00;;;;;;;16.35;4.53;;;;;;;;;;5019603;28;91679;-70
2022/01/22 06:13:43;;;;;;;12.88;4.05;;;;;;;;;;5019384;28;94708;-72
2022/01/22 06:16:16;;;;;;;18.33;4.15;;;;;;;;;;5018971;28;96122;-71
2022/01/22 06:19:06;;;;;;;17.70;3.70;;;;;;;;;;5034425;28;95871;-72
2022/01/22 06:21:32;;;;;;;16.30;3.75;;;;;;;;;;5019161;28;97647;-72
2022/01/22 06:24:00;;;;;;;20.38;3.90;;;;;;;;;;5018984;28;95960;-71
2022/01/22 06:26:26;;;;;;;13.48;3.58;;;;;;;;;;5019042;28;92487;-71
2022/01/22 06:28:53;;;;;;;13.35;3.08;;;;;;;;;;5022036;28;95365;-71
2022/01/22 06:31:24;;;;;;;21.33;3.72;;;;;;;;;;5018722;28;92446;-71
2022/01/22 06:33:51;;;;;;;14.35;3.20;;;;;;;;;;5018808;28;95053;-71
2022/01/22 06:36:19;;;;;;;9.45;3.03;;;;;;;;;;5019174;28;95063;-72
2022/01/22 06:38:45;;;;;;;7.63;3.00;;;;;;;;;;5018923;28;92422;-71
2022/01/22 06:41:46;;;;;;;12.70;2.92;;;;;;;;;;5034096;28;94657;-71
2022/01/22 06:44:39;;;;;;;11.85;2.50;;;;;;;;;;5030401;28;96893;-71
2022/01/22 06:47:37;;;;;;;8.82;2.60;;;;;;;;;;5036510;28;92455;-72
2022/01/22 06:50:19;;;;;;;16.20;3.08;;;;;;;;;;5017886;28;95864;-71
2022/01/22 06:52:55;;;;;;;8.73;2.80;;;;;;;;;;5037169;28;92499;-71
2022/01/22 06:55:40;;;;;;;11.85;2.60;;;;;;;;;;5018580;28;95105;-71
2022/01/22 06:58:08;;;;;;;16.55;3.20;;;;;;;;;;5018470;28;96273;-71
2022/01/22 07:00:37;;;;;;;9.23;2.72;;;;;;;;;;5018572;28;92448;-71
2022/01/22 07:03:19;;;;;;;12.27;2.70;;;;;;;;;;5019026;28;96195;-72
2022/01/22 07:05:53;;;;;;;8.93;2.40;;;;;;;;;;5018498;28;95757;-72
2022/01/22 07:08:22;;;;;;;9.82;2.47;;;;;;;;;;5018585;28;92301;-71
2022/01/22 07:10:57;;;;;;;16.65;2.83;;;;;;;;;;5016941;28;95283;-71
2022/01/22 07:13:24;;;;;;;17.00;3.28;;;;;;;;;;5017753;28;95297;-70
2022/01/22 07:15:53;;;;;;;7.90;2.70;;;;;;;;;;5021659;27;92344;-71
2022/01/22 07:18:21;;;;;;;11.57;2.47;;;;;;;;;;5039313;28;93770;-71
2022/01/22 07:20:50;;;;;;;10.93;2.15;;;;;;;;;;5021826;28;92355;-72
2022/01/22 07:23:31;;;;;;;17.08;2.55;;;;;;;;;;5021771;28;95838;-71
2022/01/22 07:26:04;;;;;;;10.07;2.17;;;;;;;;;;5021623;28;96039;-70
2022/01/22 07:28:54;;;;;;;12.68;2.20;;;;;;;;;;5022270;28;91642;-72
2022/01/22 07:31:26;;;;;;;15.20;2.08;;;;;;;;;;5022015;28;94379;-71
2022/01/22 07:33:56;;;;;;;9.68;2.20;;;;;;;;;;5021605;28;95114;-71
2022/01/22 07:36:22;;;;;;;12.38;2.45;;;;;;;;;;5037616;28;94710;-72
2022/01/22 07:38:49;;;;;;;13.15;2.42;;;;;;;;;;5024284;28;97131;-72
2022/01/22 07:41:16;;;;;;;11.15;2.45;;;;;;;;;;5021467;28;92362;-72
2022/01/22 07:44:01;;;;;;;9.55;2.50;;;;;;;;;;5021338;28;94965;-72
2022/01/22 07:46:40;;;;;;;8.50;2.10;;;;;;;;;;5020716;28;95393;-72
2022/01/22 07:49:20;;;;;;;7.20;1.90;;;;;;;;;;5020663;28;92412;-71
2022/01/22 07:51:48;;;;;;;9.60;2.15;;;;;;;;;;5039234;28;93186;-72
2022/01/22 07:54:16;;;;;;;9.15;2.10;;;;;;;;;;5021576;28;93944;-72
2022/01/22 07:56:43;;;;;;;10.25;2.08;;;;;;;;;;5021142;28;92297;-71
2022/01/22 07:59:12;;;;;;;11.30;2.22;;;;;;;;;;5023427;28;94696;-72
2022/01/22 08:01:46;;;;;;;12.45;2.22;;;;;;;;;;5019784;28;94745;-71
2022/01/22 08:04:24;;;;;;;8.82;2.13;;;;;;;;;;5037216;28;95506;-73
2022/01/22 08:07:09;;;;;;;9.43;2.03;;;;;;;;;;5038669;28;92489;-72
2022/01/22 08:10:13;;;;;;;12.93;1.65;;;;;;;;;;5038573;28;92293;-73
2022/01/22 08:12:44;;;;;;;7.80;1.92;;;;;;;;;;5021128;28;95866;-73
2022/01/22 08:15:16;;;;;;;9.05;1.75;;;;;;;;;;5020733;28;95524;-73
2022/01/22 08:17:43;;;;;;;6.85;1.70;;;;;;;;;;5020893;28;92502;-72
2022/01/22 08:20:12;;;;;;;6.10;1.98;;;;;;;;;;5038896;28;93317;-72
2022/01/22 08:22:51;;;;;;;7.78;1.90;;;;;;;;;;5039710;28;93428;-71
2022/01/22 08:25:49;;;;;;;10.88;2.15;;;;;;;;;;5021060;28;95481;-72
2022/01/22 08:31:25;;;;;;;6.93;2.40;;;;;;;;;;5020726;28;92260;-71
2022/01/22 08:36:42;;;;;;;9.75;2.63;;;;;;;;;;5020285;28;96441;-74
2022/01/22 08:39:09;;;;;;;8.70;2.17;;;;;;;;;;5020568;28;92468;-73
2022/01/22 08:41:36;;;;;;;7.65;2.35;;;;;;;;;;5020453;28;95255;-73
2022/01/22 08:44:03;;;;;;;13.45;2.33;;;;;;;;;;5020165;28;96291;-71
2022/01/22 08:46:31;;;;;;;8.60;2.22;;;;;;;;;;5023985;28;91677;-71
2022/01/22 08:48:57;;;;;;;13.48;2.72;;;;;;;;;;4992294;28;96218;-71
2022/01/22 08:51:26;;;;;;;6.60;2.03;;;;;;;;;;4996540;28;92346;-71
2022/01/22 08:53:55;;;;;;;9.65;2.30;;;;;;;;;;4995538;28;95362;-72
2022/01/22 08:56:21;;;;;;;10.10;2.28;;;;;;;;;;4996845;28;96141;-72
2022/01/22 08:58:48;;;;;;;7.78;2.13;;;;;;;;;;4996932;28;92379;-71
2022/01/22 09:01:28;;;;;;;11.77;2.25;;;;;;;;;;4997142;28;94867;-71
2022/01/22 09:03:59;;;;;;;8.85;1.90;;;;;;;;;;4996253;28;95760;-72
2022/01/22 09:06:43;;;;;;;11.77;2.35;;;;;;;;;;4996559;28;92637;-72
2022/01/22 09:09:17;;;;;;;7.50;2.08;;;;;;;;;;4999963;28;94428;-73
2022/01/22 09:11:56;;;;;;;5.97;2.45;;;;;;;;;;4997420;28;91628;-71
2022/01/22 09:14:41;;;;;;;8.80;1.88;;;;;;;;;;4996910;28;94722;-73
2022/01/22 09:17:08;;;;;;;3.47;2.10;;;;;;;;;;4996700;28;96434;-71
2022/01/22 09:19:35;;;;;;;11.40;2.47;;;;;;;;;;4994996;28;94729;-72
2022/01/22 09:22:11;;;;;;;6.25;2.45;;;;;;;;;;4996739;28;97648;-73
2022/01/22 09:24:40;;;;;;;10.55;2.90;;;;;;;;;;4995953;28;95676;-72
2022/01/22 09:27:09;;;;;;;11.25;3.08;;;;;;;;;;4996655;28;92356;-71
2022/01/22 09:29:38;;;;;;;5.90;2.50;;;;;;;;;;4996624;28;95834;-73
2022/01/22 09:32:04;;;;;;;10.25;3.63;;;;;;;;;;4999263;28;95854;-72
2022/01/22 09:35:06;;;;;;;9.77;2.55;;;;;;;;;;4955539;28;92643;-73
2022/01/22 09:37:45;;;;;;;8.80;2.85;;;;;;;;;;4988930;28;95481;-71
2022/01/22 09:40:30;;;;;;;14.10;2.53;;;;;;;;;;4996126;28;92386;-72
2022/01/22 09:43:17;;;;;;;8.25;2.33;;;;;;;;;;4997012;28;94122;-72
2022/01/22 09:46:04;;;;;;;14.25;3.05;;;;;;;;;;4980993;28;97710;-71
2022/01/22 09:48:57;;;;;;;14.00;2.80;;;;;;;;;;4996460;28;92270;-70
2022/01/22 09:51:52;;;;;;;8.43;2.60;;;;;;;;;;5019114;28;94208;-71
2022/01/22 09:54:33;;;;;;;8.70;2.78;;;;;;;;;;5019336;28;96109;-71
2022/01/22 09:57:22;;;;;;;5.80;2.45;;;;;;;;;;5038943;28;92383;-71
2022/01/22 10:00:09;;;;;;;8.63;2.53;;;;;;;;;;5005150;28;93013;-71
2022/01/22 10:02:40;;;;;;;10.02;2.80;;;;;;;;;;5034798;28;92394;-72
2022/01/22 10:05:26;;;;;;;13.85;3.75;;;;;;;;;;5019863;28;95134;-71
2022/01/22 10:08:28;;;;;;;10.38;3.28;;;;;;;;;;5027227;28;92792;-73
2022/01/22 10:11:25;;;;;;;8.85;3.50;;;;;;;;;;5035066;28;92349;-72
2022/01/22 10:14:20;;;;;;;8.23;3.45;;;;;;;;;;5017689;28;95949;-72
2022/01/22 10:16:46;;;;;;;6.78;3.30;;;;;;;;;;5036493;28;94088;-71
2022/01/22 10:19:13;;;;;;;9.80;3.58;;;;;;;;;;5040359;28;92226;-72
2022/01/22 10:21:40;;;;;;;8.43;3.88;;;;;;;;;;5034962;28;93611;-72
2022/01/22 10:24:27;;;;;;;3.63;3.30;;;;;;;;;;5032891;28;92337;-71
2022/01/22 10:27:18;;;;;;;12.20;3.80;;;;;;;;;;5031787;28;93437;-73
2022/01/22 10:29:49;;;;;;;8.23;3.40;;;;;;;;;;5036954;28;93842;-71
2022/01/22 10:32:21;;;;;;;10.37;3.50;;;;;;;;;;5037378;28;93878;-73
2022/01/22 10:35:08;;;;;;;10.80;3.75;;;;;;;;;;5036118;28;92376;-72
2022/01/22 10:37:55;;;;;;;10.63;3.30;;;;;;;;;;5035743;28;94398;-71
2022/01/22 10:40:25;;;;;;;6.38;3.70;;;;;;;;;;5035228;28;94710;-72
2022/01/22 10:43:08;;;;;;;5.50;2.95;;;;;;;;;;5039616;28;95761;-73
2022/01/22 10:45:39;;;;;;;8.10;3.22;;;;;;;;;;5036790;28;92325;-75
2022/01/22 10:48:13;;;;;;;8.20;3.42;;;;;;;;;;5036352;28;93591;-72
2022/01/22 10:50:40;;;;;;;6.13;2.92;;;;;;;;;;5036609;27;93566;-70
2022/01/22 10:53:06;;;;;;;13.75;3.30;;;;;;;;;;5039778;28;92329;-73
2022/01/22 10:55:32;;;;;;;6.03;2.78;;;;;;;;;;5040103;28;95073;-72
2022/01/22 10:58:07;;;;;;;11.27;3.05;;;;;;;;;;5040492;28;92928;-72
2022/01/22 11:00:34;;;;;;;5.97;2.60;;;;;;;;;;5040124;28;94468;-74
2022/01/22 11:03:17;;;;;;;6.10;3.10;;;;;;;;;;5040024;28;93436;-70
2022/01/22 11:05:44;;;;;;;7.68;3.17;;;;;;;;;;5041588;28;95970;-72
2022/01/22 11:08:14;;;;;;;7.55;2.90;;;;;;;;;;5021776;28;98644;-71
2022/01/22 11:10:42;;;;;;;4.28;2.90;;;;;;;;;;5039923;28;93524;-72
2022/01/22 11:13:08;;;;;;;4.85;2.60;;;;;;;;;;5039908;28;92389;-73
2022/01/22 11:15:35;;;;;;;3.53;2.70;;;;;;;;;;5040080;28;93471;-72
2022/01/22 11:18:02;;;;;;;6.65;2.95;;;;;;;;;;5039675;28;93876;-73
2022/01/22 11:20:30;;;;;;;5.82;3.00;;;;;;;;;;5039815;28;92598;-73
2022/01/22 11:22:57;;;;;;;6.90;3.08;;;;;;;;;;5022852;28;93379;-72
2022/01/22 11:25:24;;;;;;;8.27;3.05;;;;;;;;;;5021401;28;93658;-74
2022/01/22 11:27:51;;;;;;;4.82;2.80;;;;;;;;;;5027538;28;92196;-72
2022/01/22 11:30:18;;;;;;;9.00;3.30;;;;;;;;;;5017830;28;96368;-72
2022/01/22 11:32:49;;;;;;;11.63;4.10;;;;;;;;;;5019657;28;92465;-72
2022/01/22 11:35:20;;;;;;;6.55;3.30;;;;;;;;;;5019548;28;93495;-72
2022/01/22 11:37:51;;;;;;;17.30;3.35;;;;;;;;;;5019471;28;93729;-72
2022/01/22 11:40:25;;;;;;;4.82;2.88;;;;;;;;;;5019199;28;92399;-72
2022/01/22 11:43:13;;;;;;;7.22;2.80;;;;;;;;;;5019427;28;93342;-71
2022/01/22 11:45:47;;;;;;;8.48;2.60;;;;;;;;;;5019113;28;93694;-72
2022/01/22 11:48:15;;;;;;;7.80;2.95;;;;;;;;;;5019633;28;91519;-72
2022/01/22 11:50:43;;;;;;;5.22;3.05;;;;;;;;;;5022077;28;92730;-71
2022/01/22 11:53:29;;;;;;;4.68;2.90;;;;;;;;;;5019442;28;92259;-72
2022/01/22 11:56:11;;;;;;;11.73;3.47;;;;;;;;;;5016150;28;94875;-73
2022/01/22 11:58:56;;;;;;;11.30;5.00;;;;;;;;;;5018903;28;93702;-72
2022/01/22 12:01:43;;;;;;;7.60;5.05;;;;;;;;;;5018741;28;92400;-72
2022/01/22 12:04:10;;;;;;;16.33;7.30;;;;;;;;;;5017003;28;93343;-73
2022/01/22 12:06:59;;;;;;;14.35;7.07;;;;;;;;;;5018865;28;95054;-72
2022/01/22 12:09:26;;;;;;;15.10;6.75;;;;;;;;;;5018961;28;92363;-74
2022/01/22 12:14:51;;;;;;;12.25;6.40;;;;;;;;;;5022353;28;92821;-73
2022/01/22 12:17:25;;;;;;;15.40;6.90;;;;;;;;;;5018852;28;92720;-71
2022/01/22 12:20:45;;;;;;;9.13;6.13;;;;;;;;;;5018533;28;93577;-72
2022/01/22 12:22:39;;;;;;;18.80;7.15;;;;;;;;;;5003112;28;94797;-71
2022/01/22 12:25:14;;;;;;;10.70;5.97;;;;;;;;;;5001277;28;95891;-70
2022/01/22 12:27:45;;;;;;;16.50;6.25;;;;;;;;;;5001019;28;93651;-71
2022/01/22 12:30:11;;;;;;;12.35;6.38;;;;;;;;;;5017410;28;92347;-69
2022/01/22 12:32:44;;;;;;;10.05;5.95;;;;;;;;;;5018630;28;93582;-70
2022/01/22 12:35:15;;;;;;;12.65;5.68;;;;;;;;;;5017596;28;93540;-72
2022/01/22 12:37:45;;;;;;;12.02;6.03;;;;;;;;;;5000529;28;93959;-71
2022/01/22 12:40:12;;;;;;;10.40;6.30;;;;;;;;;;5018716;28;92440;-70
2022/01/22 12:42:52;;;;;;;12.15;6.00;;;;;;;;;;5018115;28;92471;-72
2022/01/22 12:45:19;;;;;;;15.60;5.60;;;;;;;;;;5018287;28;93376;-71
2022/01/22 12:47:48;;;;;;;9.63;5.68;;;;;;;;;;5016069;28;95766;-71
2022/01/22 12:50:14;;;;;;;13.80;5.00;;;;;;;;;;5018182;28;92325;-71
2022/01/22 12:52:45;;;;;;;17.35;5.05;;;;;;;;;;5018319;28;93617;-72
2022/01/22 12:55:17;;;;;;;12.13;4.57;;;;;;;;;;5018072;28;93579;-72
2022/01/22 12:57:57;;;;;;;7.68;4.47;;;;;;;;;;5003264;28;92320;-71
2022/01/22 13:00:23;;;;;;;12.38;4.43;;;;;;;;;;5017876;28;93177;-71
2022/01/22 13:02:57;;;;;;;10.18;3.95;;;;;;;;;;5018155;28;92346;-71
2022/01/22 13:05:28;;;;;;;9.40;4.68;;;;;;;;;;5018500;28;93339;-71
2022/01/22 13:07:57;;;;;;;7.72;4.60;;;;;;;;;;5016400;28;93326;-70
2022/01/22 13:10:48;;;;;;;18.17;4.60;;;;;;;;;;4999605;28;92357;-72
2022/01/22 13:13:18;;;;;;;11.20;4.82;;;;;;;;;;5021343;28;94775;-72
2022/01/22 13:15:44;;;;;;;10.63;5.40;;;;;;;;;;5027098;28;93939;-72
2022/01/22 13:18:11;;;;;;;11.32;4.95;;;;;;;;;;5028294;28;92516;-72
2022/01/22 13:20:37;;;;;;;14.00;5.75;;;;;;;;;;5029076;28;93370;-73
2022/01/22 13:23:13;;;;;;;14.95;5.53;;;;;;;;;;5026879;28;92341;-72
2022/01/22 13:25:40;;;;;;;13.52;5.78;;;;;;;;;;5026677;28;93405;-73
2022/01/22 13:28:12;;;;;;;13.45;5.80;;;;;;;;;;5026880;28;93803;-72
2022/01/22 13:30:44;;;;;;;10.13;5.65;;;;;;;;;;5010545;28;91819;-73
2022/01/22 13:33:18;;;;;;;15.93;5.88;;;;;;;;;;5027869;28;92660;-71
2022/01/22 13:36:27;;;;;;;20.02;6.30;;;;;;;;;;5034091;28;92587;-71
2022/01/22 13:49:38;;;;;;;12.75;7.25;;;;;;;;;;5027094;28;93514;-70
2022/01/22 13:52:06;;;;;;;11.00;7.07;;;;;;;;;;5031956;28;92322;-72
2022/01/22 13:54:36;;;;;;;15.43;7.43;;;;;;;;;;5037430;28;92369;-71
2022/01/22 13:57:05;;;;;;;19.42;8.15;;;;;;;;;;5037596;28;92850;-72
2022/01/22 13:59:35;;;;;;;14.85;7.28;;;;;;;;;;5037389;28;92335;-73
2022/01/22 14:04:56;;;;;;;13.88;7.50;;;;;;;;;;5035491;28;95694;-73
2022/01/22 14:07:30;;;;;;;18.30;8.45;;;;;;;;;;5035445;28;92305;-71
2022/01/22 14:09:59;;;;;;;15.95;8.27;;;;;;;;;;5036995;28;93797;-72
2022/01/22 14:12:27;;;;;;;15.63;8.38;;;;;;;;;;5036769;28;92302;-72
2022/01/22 14:15:04;;;;;;;12.27;7.68;;;;;;;;;;5037263;28;92908;-71
2022/01/22 14:17:37;;;;;;;15.90;7.47;;;;;;;;;;5036906;28;93832;-72
2022/01/22 14:20:06;;;;;;;15.27;8.43;;;;;;;;;;5036982;28;92373;-72
2022/01/22 14:22:51;;;;;;;12.23;7.80;;;;;;;;;;5037514;28;93398;-71
2022/01/22 14:25:17;;;;;;;13.70;8.95;;;;;;;;;;5036528;28;94032;-71
2022/01/22 14:27:53;;;;;;;13.82;7.97;;;;;;;;;;5035861;28;92324;-71
2022/01/22 14:30:39;;;;;;;14.93;8.32;;;;;;;;;;5038316;28;94763;-71
2022/01/22 14:33:05;;;;;;;10.60;7.72;;;;;;;;;;5036637;28;92227;-71
2022/01/22 14:35:32;;;;;;;12.32;7.95;;;;;;;;;;5036637;28;93472;-71
2022/01/22 14:38:17;;;;;;;14.48;8.10;;;;;;;;;;5036572;28;94002;-72
2022/01/22 14:44:03;;;;;;;12.68;7.28;;;;;;;;;;5031090;28;92478;-70
2022/01/22 14:46:42;;;;;;;13.57;7.28;;;;;;;;;;5015056;28;94004;-69
2022/01/22 14:49:08;;;;;;;18.50;10.45;;;;;;;;;;5016371;28;93091;-70
2022/01/22 14:51:34;;;;;;;17.50;10.52;;;;;;;;;;5018442;28;93241;-71
2022/01/22 14:54:00;;;;;;;13.43;8.77;;;;;;;;;;5015870;28;92258;-71
2022/01/22 14:56:27;;;;;;;20.35;10.98;;;;;;;;;;5014948;28;94681;-71
2022/01/22 14:58:53;;;;;;;19.20;10.85;;;;;;;;;;5015175;28;93596;-70
2022/01/22 15:01:20;;;;;;;19.20;9.57;;;;;;;;;;5015695;28;92295;-73
2022/01/22 15:03:46;;;;;;;19.02;12.43;;;;;;;;;;5016533;28;93404;-72
2022/01/22 15:06:13;;;;;;;17.70;10.07;;;;;;;;;;5015127;28;93675;-72
2022/01/22 15:08:39;;;;;;;13.77;9.90;;;;;;;;;;5015610;28;92303;-72
2022/01/22 15:11:06;;;;;;;19.85;11.63;;;;;;;;;;5016048;28;92938;-72
2022/01/22 15:13:33;;;;;;;19.35;10.48;;;;;;;;;;5019143;28;92813;-72
2022/01/22 15:16:01;;;;;;;20.75;11.90;;;;;;;;;;4997796;28;94144;-71
2022/01/22 15:21:10;;;;;;;12.38;8.50;;;;;;;;;;5013642;28;94798;-73
2022/01/22 15:23:36;;;;;;;10.05;7.80;;;;;;;;;;5016295;28;95805;-73
2022/01/22 15:26:03;;;;;;;15.65;8.98;;;;;;;;;;5016196;28;93599;-71
2022/01/22 15:28:35;;;;;;;17.70;8.95;;;;;;;;;;5016268;28;92208;-71
2022/01/22 15:31:02;;;;;;;19.77;9.13;;;;;;;;;;5016284;28;93350;-72
2022/01/22 15:33:47;;;;;;;18.23;9.40;;;;;;;;;;5015545;28;92963;-72
2022/01/22 15:36:14;;;;;;;21.75;9.45;;;;;;;;;;5018771;28;92238;-72
2022/01/22 15:38:41;;;;;;;16.80;9.23;;;;;;;;;;5018561;28;93024;-71
2022/01/22 15:41:08;;;;;;;21.77;10.02;;;;;;;;;;5019289;28;92261;-72
2022/01/22 15:43:34;;;;;;;16.58;9.57;;;;;;;;;;5018459;28;93062;-73
2022/01/22 15:46:00;;;;;;;29.15;16.40;;;;;;;;;;5017524;28;95505;-69
2022/01/22 15:48:27;;;;;;;28.25;18.17;;;;;;;;;;5017707;28;92435;-72
2022/01/22 15:50:53;;;;;;;27.25;16.92;;;;;;;;;;5018531;28;94028;-74
2022/01/22 15:53:20;;;;;;;18.58;12.65;;;;;;;;;;5018316;28;93144;-74
2022/01/22 15:55:50;;;;;;;19.80;14.07;;;;;;;;;;5018499;28;92231;-73
2022/01/22 15:58:17;;;;;;;20.70;12.02;;;;;;;;;;5021209;28;92776;-71
2022/01/22 16:00:44;;;;;;;21.95;13.15;;;;;;;;;;5018223;28;93196;-72
2022/01/22 16:03:10;;;;;;;27.75;14.07;;;;;;;;;;5018165;28;93673;-71
2022/01/22 16:05:39;;;;;;;22.17;12.43;;;;;;;;;;5018376;28;93963;-73
2022/01/22 16:08:05;;;;;;;24.30;13.98;;;;;;;;;;5018207;28;92205;-72
2022/01/22 16:10:54;;;;;;;24.55;18.50;;;;;;;;;;5016753;28;94722;-71
2022/01/22 16:13:21;;;;;;;24.60;14.98;;;;;;;;;;5018069;28;93919;-71
2022/01/22 16:15:48;;;;;;;25.77;16.52;;;;;;;;;;5017751;28;92819;-70
2022/01/22 16:18:14;;;;;;;23.30;14.13;;;;;;;;;;5018055;28;93040;-71
2022/01/22 16:20:40;;;;;;;24.27;14.50;;;;;;;;;;5020839;28;93585;-70
2022/01/22 16:23:07;;;;;;;28.90;15.98;;;;;;;;;;5017911;28;93607;-72
2022/01/22 16:25:39;;;;;;;32.88;17.92;;;;;;;;;;5017819;28;93070;-72
2022/01/22 16:28:05;;;;;;;28.98;18.33;;;;;;;;;;5018206;28;92651;-71
2022/01/22 16:30:32;;;;;;;26.08;16.27;;;;;;;;;;5017804;28;92260;-74
2022/01/22 16:32:58;;;;;;;30.48;16.35;;;;;;;;;;5017650;28;93266;-72
2022/01/22 16:35:24;;;;;;;24.63;15.25;;;;;;;;;;5016347;28;94670;-71
2022/01/22 16:37:51;;;;;;;26.63;17.00;;;;;;;;;;5024117;28;95798;-71
2022/01/22 16:40:24;;;;;;;25.58;16.55;;;;;;;;;;5037617;28;92710;-72
2022/01/22 16:43:03;;;;;;;28.65;16.92;;;;;;;;;;5040188;28;92295;-71